• Join FlightAware (Why Join?)
  • Login
  • US Flag 
08:42AM EST


 

Airport Tracker/Info


-or-


 

Live Flight TrackerFlight Track Log ✈ QJE1940 ✈ 04-Oct-2013 ✈ YAYE / AYQ - YBAS / ASP

Flight Track Log - Related Links

Times and Time Zones

All times are in EDT time to prevent confusion due to time zone crossing. See the QJE1940 flight status page for this flight to view local times or setup timezone preferences in your user account.

Time Position Orientation Groundspeed Altitude Reporting Facility
EDT Latitude Longitude Course Direction KTS MPH feet Rate Location/Type
08:42PM -25.1715 130.9748 63° Northeast 29,000  Level Aus ATC (Calculated)
08:43PM -25.1296 131.0659 63° Northeast 29,000 -1,260 Level Aus ATC (Calculated)
08:44PM -25.0457 131.2480 63° Northeast 29,000 -1,500 Level Aus ATC (Calculated)
08:45PM -25.0574 131.2225 63° Northeast  Level FlightAware Approximate
08:46PM -24.9800 131.3900 63° Northeast  Level FlightAware Approximate
08:46PM -25.0037 131.3389 63° Northeast 29,000  Level Aus ATC (Calculated)
08:47PM -24.9401 131.4761 63° Northeast  Level FlightAware Approximate
08:47PM -24.9194 131.5206 64° Northeast 29,000  Level Aus ATC (Calculated)
08:49PM -24.8628 131.6424 63° Northeast  Level FlightAware Approximate
08:49PM -24.8970 131.5720 63° Northeast 418 481 19,900  Level FlightAware
08:49PM -24.8720 131.6250 63° Northeast 426 490 20,900 1,500 Climbing FlightAware
08:50PM -24.8228 131.7282 63° Northeast  Level FlightAware Approximate
08:50PM -24.7926 131.7927 243° Southwest 29,000  Level Aus ATC (Calculated)
08:50PM -24.8200 131.7340 63° Northeast 431 496 22,200 -3,840 Descending FlightAware
08:51PM -24.7503 131.8833 242° Southwest 29,000 3,600 Climbing Aus ATC (Calculated)
08:51PM -24.7850 131.8100 63° Northeast 445 512 24,200 -3,840 Descending FlightAware
08:52PM -24.7490 131.8870 63° Northeast 454 522 25,400 1,800 Climbing FlightAware
08:52PM -24.7190 131.9510 63° Northeast 464 534 26,300 2,160 Climbing FlightAware
08:52PM -24.7079 131.9738 63° Northeast 29,000 2,520 Climbing Aus ATC (Calculated)
08:53PM -24.6810 132.0320 63° Northeast 454 522 28,000  Descending FlightAware
08:53PM -24.6228 132.1547 242° Southwest 29,000 1,500 Climbing Aus ATC (Calculated)
08:54PM -24.6410 132.1170 63° Northeast 456 525 29,000  Level FlightAware
08:54PM -24.6228 132.1547 63° Northeast 29,000  Level Aus ATC (Calculated)
08:54PM -24.6070 132.1890 63° Northeast 452 520 29,000  Level FlightAware
08:55PM -24.5720 132.2630 63° Northeast 453 521 29,000  Level FlightAware
08:55PM -24.5803 132.2450 63° Northeast 29,000  Level Aus ATC (Calculated)
08:55PM -24.5420 132.3270 63° Northeast 453 521 29,000  Level FlightAware
08:56PM -24.5070 132.3990 62° Northeast 453 521 29,000  Level FlightAware
08:56PM -24.4949 132.4255 63° Northeast 29,000  Level Aus ATC (Calculated)
08:56PM -24.4710 132.4760 62° Northeast 453 521 29,000  Level FlightAware
08:57PM -24.4400 132.5410 62° Northeast 451 519 29,000 -1,200 Level FlightAware
08:57PM -24.4515 132.5167 62° Northeast 2,800 -2,160 Descending Aus ATC (Calculated)
08:57PM -24.4515 132.5167 62° Northeast 2,800 64,920 Level Aus ATC (Calculated)
08:58PM -24.4030 132.6170 62° Northeast 452 520 27,700 30,360 Climbing FlightAware
08:58PM -24.3680 132.6900 62° Northeast 450 518 26,100 -2,700 Descending FlightAware
08:59PM -24.3380 132.7540 62° Northeast 436 502 24,600 -2,640 Descending FlightAware
08:59PM -24.3643 132.6991 62° Northeast 2,800 -2,520 Descending Aus ATC (Calculated)
08:59PM -24.3060 132.8200 62° Northeast 420 483 23,200 19,860 Climbing FlightAware
09:00PM -24.2720 132.8910 62° Northeast 411 473 21,700 -2,400 Descending FlightAware
09:01PM -24.2420 132.9540 62° Northeast 403 464 20,300 -2,460 Descending FlightAware
09:01PM -24.2150 133.0110 63° Northeast 407 468 19,000 -2,520 Descending FlightAware
09:01PM -24.2332 132.9721 62° Northeast 2,800 -2,520 Descending Aus ATC (Calculated)
09:02PM -24.1680 133.1070 63° Northeast 380 437 16,800 11,760 Climbing FlightAware
09:02PM -24.2332 132.9721 62° Northeast 2,800 -2,220 Descending Aus ATC (Calculated)
09:02PM -24.1430 133.1600 63° Northeast 365 420 15,600 10,500 Climbing FlightAware
09:03PM -24.1130 133.2210 62° Northeast 363 418 14,400 -2,220 Descending FlightAware
09:04PM -24.0860 133.2770 62° Northeast 352 405 13,000 -2,340 Descending FlightAware
09:04PM -24.0580 133.3340 62° Northeast 344 396 11,600 -1,920 Descending FlightAware
09:05PM -24.0370 133.3780 62° Northeast 319 367 10,900 -1,080 Descending FlightAware
09:05PM -24.0577 133.3353 62° Northeast 2,800 -840 Descending Aus ATC (Calculated)
09:05PM -24.0160 133.4210 62° Northeast 294 338 10,400 9,360 Climbing FlightAware
09:06PM -24.0010 133.4530 63° Northeast 292 336 10,000 -1,380 Descending FlightAware
09:06PM -24.0136 133.4259 62° Northeast 2,800 -1,500 Descending Aus ATC (Calculated)
09:06PM -23.9880 133.4790 61° Northeast 292 336 9,400 15,900 Climbing FlightAware
09:06PM -23.9760 133.5030 61° Northeast 290 334 8,900 -2,160 Descending FlightAware
09:07PM -23.9640 133.5280 62° Northeast 290 334 8,300 -1,680 Descending FlightAware
09:07PM -23.9530 133.5490 60° Northeast 285 328 7,900 -1,380 Descending FlightAware
09:07PM -23.9440 133.5680 63° Northeast 278 320 7,500 -1,740 Descending FlightAware
09:07PM -23.9350 133.5890 65° Northeast 271 312 7,000 -1,920 Descending FlightAware
09:08PM -23.9240 133.6100 60° Northeast 268 308 6,500 -1,500 Descending FlightAware
09:08PM -23.9254 133.6070 62° Northeast 2,800 -1,320 Descending Aus ATC (Calculated)
09:08PM -23.9130 133.6330 62° Northeast 265 305 6,100 6,840 Climbing FlightAware
09:08PM -23.9010 133.6570 61° Northeast 267 307 5,900 -720 Descending FlightAware
09:09PM -23.8930 133.6730 61° Northeast 266 306 5,700 -840 Descending FlightAware
09:09PM -23.8800 133.7000 62° Northeast 257 296 5,400 -900 Descending FlightAware
09:09PM -23.8690 133.7220 62° Northeast 242 278 5,100 -1,080 Descending FlightAware
09:09PM -23.8370 133.7879 241° Southwest 2,800 -1,200 Descending Aus ATC (Calculated)
09:09PM -23.8370 133.7879 241° Southwest 2,800 7,560 Level Aus ATC (Calculated)
09:10PM -23.8590 133.7440 62° Northeast 230 265 4,700 3,240 Climbing FlightAware
09:10PM -23.8510 133.7590 60° Northeast 219 252 4,500 -900 Descending FlightAware
09:10PM -23.8420 133.7780 63° Northeast 201 231 4,200 -720 Descending FlightAware
09:11PM -23.8350 133.7910 60° Northeast 185 213 4,100 -720 Descending FlightAware
09:11PM -23.8230 133.8030 42° Northeast 179 206 3,800 -960 Descending FlightAware
09:11PM -23.8120 133.8110 34° Northeast 171 197 3,500 -840 Descending FlightAware
09:12PM -23.8020 133.8170 29° Northeast 159 183 3,300 -840 Descending FlightAware
09:12PM -23.7830 133.8300 32° Northeast 137 158 2,900 -720 Descending FlightAware
09:12PM -23.7800 133.8320 31° Northeast 135 155 2,900 -660 Level FlightAware
09:12PM -23.7760 133.8390 58° Northeast 128 147 2,700 -1,080 Descending FlightAware
09:12PM -23.7760 133.8430 90° East 127 146 2,600 -900 Descending FlightAware
09:13PM -23.7810 133.8560 113° Southeast 131 151 2,300 -720 Descending FlightAware
09:13PM -23.7870 133.8680 119° Southeast 129 148 2,100 -720 Descending FlightAware
09:13PM -23.7920 133.8770 121° Southeast 131 151 1,900 -720 Descending FlightAware
09:14PM -23.7980 133.8890 119° Southeast 130 150 1,700 -600 Descending FlightAware
09:14PM -23.8040 133.9000 119° Southeast 125 144 -4,680 Descending FlightAware